Chiang Mai, Thailand

9:41 AM ICT on September 03, 2014 (GMT +0700)
ThaiWx Station | Change Station
CLOSE
Current Station
Personal Weather Station
Location: Chiang Mai, Pa Daet
Elevation: 1007 ft
Nearby Weather Stations

Elev 1007 ft 18.77 °N, 98.97 °E | Updated 2 minutes ago

Mostly Cloudy
Mostly Cloudy
81.1 °F
Feels Like 86 °F
N
0.0
Wind Variable Wind from ENE
Gusts 4.5 mph

Today
High -- | Low -- °F
--% Chance of Precip.
Yesterday
High -- | Low -- °F
Precip. -- in
6:09 AM 6:37 PM
First Quarter, 57% visible
Pressure 29.89 in
Visibility 6.2 miles
Clouds Few 1500 ft
Mostly Cloudy 3500 ft
Heat Index 86 °F
Dew Point 74 °F
Humidity 79%
Rainfall 1.49 in
Snow Depth Not available.
UV 5 out of 12
Pollen Not available.
Air Quality Not available.
Flu Activity Not available.
METAR VTCC 030230Z 17003KT 9999 FEW015 BKN035 27/22 Q1012 A2990 NOSIG

More Conditions Fewer Conditions

Pressure 29.89 in
Visibility 6.2 miles
Clouds Few 1500 ft
Mostly Cloudy 3500 ft
Heat Index 86 °F
Dew Point 74 °F
Humidity 79%
Rainfall 1.49 in
Snow Depth Not available.
UV 5 out of 12
Pollen Not available.
Air Quality Not available.
Flu Activity Not available.
METAR VTCC 030230Z 17003KT 9999 FEW015 BKN035 27/22 Q1012 A2990 NOSIG

More Conditions Fewer Conditions

10-Day Weather Forecast

Almanac

Astronomy

Sep. 03, 2014 Rise Set
Actual Time 6:09 AM ICT 6:37 PM ICT
Civil Twilight 5:47 AM ICT 6:59 PM ICT
Nautical Twilight 5:21 AM ICT 7:25 PM ICT
Astronomical Twilight 4:55 AM ICT 7:51 PM ICT
Moon 1:23 PM ICT 12:00 AM ICT
Length of Visible Light 13h 11m
Length of Day
12h 27m
Tomorrow will be 1m 1s shorter.
First Quarter, 57% of the Moon is Illuminated
Sep 2
First Quarter
Sep 8
Full
Sep 15
Last Quarter
Sep 24
New
Oct 1
First Quarter

Yesterday's Extremes

Country Highs Country Lows

Community

WunderPhotos

Upload Photos

1,749,845 photos uploaded!

Nearby

Snow Depth

Not available.

Earthquake Activity

City Distance Mag. Time & Date
No recent earthquake activity has been reported nearby.
Minimum magnitude displayed is 2.5.

Coastal Water Temperatures

Place Temperature
No Stations Reporting

Nearby Weather Stations